createdAt,value
2023-03-03T00:00:39.938Z,0.00
2023-03-03T00:01:39.953Z,0.00
2023-03-03T00:02:39.947Z,0.00
2023-03-03T00:03:39.982Z,0.00
2023-03-03T00:04:39.896Z,0.00
2023-03-03T00:05:39.880Z,0.00
2023-03-03T00:06:39.885Z,0.00
2023-03-03T00:07:39.862Z,0.00
2023-03-03T00:08:39.884Z,0.00
2023-03-03T00:09:39.835Z,0.00
2023-03-03T00:10:39.843Z,0.00
2023-03-03T00:11:39.845Z,0.00
2023-03-03T00:12:39.836Z,0.00
2023-03-03T00:13:39.811Z,0.00
2023-03-03T00:14:39.812Z,0.00
2023-03-03T00:15:39.834Z,0.00
2023-03-03T00:16:39.770Z,0.00
2023-03-03T00:17:39.766Z,0.00
2023-03-03T00:18:39.766Z,0.00
2023-03-03T00:19:39.772Z,0.00
2023-03-03T00:20:39.742Z,0.00
2023-03-03T00:21:39.717Z,0.00
2023-03-03T00:22:39.725Z,0.00
2023-03-03T00:23:39.715Z,0.00
2023-03-03T00:24:39.715Z,0.00
2023-03-03T00:25:39.695Z,0.00
2023-03-03T00:26:39.698Z,0.00
2023-03-03T00:27:39.689Z,0.00
2023-03-03T00:28:39.655Z,0.00
2023-03-03T00:29:39.646Z,0.00
2023-03-03T00:30:39.638Z,0.00
2023-03-03T00:31:39.665Z,0.00
2023-03-03T00:32:39.621Z,0.00
2023-03-03T00:33:39.592Z,0.00
2023-03-03T00:34:39.599Z,0.00
2023-03-03T00:35:39.618Z,0.00
2023-03-03T00:36:39.604Z,0.00
2023-03-03T00:37:39.580Z,0.00
2023-03-03T00:38:39.566Z,0.00
2023-03-03T00:39:39.555Z,0.00
2023-03-03T00:40:39.531Z,0.00
2023-03-03T00:41:39.549Z,0.00
2023-03-03T00:42:39.522Z,0.00
2023-03-03T00:43:39.514Z,0.00
2023-03-03T00:44:39.497Z,0.00
2023-03-03T00:45:39.513Z,0.00
2023-03-03T00:46:39.498Z,0.00
2023-03-03T00:47:39.469Z,0.00
2023-03-03T00:48:39.462Z,0.00
2023-03-03T00:49:39.500Z,0.00
2023-03-03T00:50:39.441Z,0.00
2023-03-03T00:51:39.436Z,0.00
2023-03-03T00:52:39.424Z,0.00
2023-03-03T00:53:39.448Z,0.00
2023-03-03T00:54:39.433Z,0.00
2023-03-03T00:55:39.387Z,0.00
2023-03-03T00:56:39.390Z,0.00
2023-03-03T00:57:39.378Z,0.00
2023-03-03T00:58:39.372Z,0.00
2023-03-03T00:59:39.364Z,0.00
2023-03-03T01:00:39.374Z,0.00
2023-03-03T01:01:39.402Z,0.00
2023-03-03T01:02:39.411Z,0.00
2023-03-03T01:03:39.318Z,0.00
2023-03-03T01:04:39.307Z,0.00
2023-03-03T01:05:39.316Z,0.00
2023-03-03T01:06:39.317Z,0.00
2023-03-03T01:07:39.284Z,0.00
2023-03-03T01:08:39.295Z,0.00
2023-03-03T01:09:39.270Z,0.00
2023-03-03T01:10:39.258Z,0.00
2023-03-03T01:11:39.253Z,0.00
2023-03-03T01:12:39.223Z,0.00
2023-03-03T01:13:39.242Z,0.00
2023-03-03T01:14:39.224Z,0.00
2023-03-03T01:16:54.809Z,0.00
2023-03-03T01:17:54.822Z,0.00
2023-03-03T01:18:56.002Z,0.00
2023-03-03T01:19:55.956Z,0.00
2023-03-03T01:20:55.920Z,0.00
2023-03-03T01:21:55.934Z,0.00
2023-03-03T01:22:55.909Z,0.00
2023-03-03T01:23:55.921Z,0.00
2023-03-03T01:24:56.331Z,0.00
2023-03-03T01:25:55.904Z,0.00
2023-03-03T01:26:55.861Z,0.00
2023-03-03T01:27:55.869Z,0.00
2023-03-03T01:28:55.841Z,0.00
2023-03-03T01:29:55.837Z,0.00
2023-03-03T01:30:55.896Z,0.00
2023-03-03T01:31:55.860Z,0.00
2023-03-03T01:32:55.806Z,0.00
2023-03-03T01:33:55.810Z,0.00
2023-03-03T01:34:55.782Z,0.00
2023-03-03T01:35:55.856Z,0.00
2023-03-03T01:36:55.763Z,0.00
2023-03-03T01:37:55.762Z,0.00
2023-03-03T01:38:55.747Z,0.00
2023-03-03T01:39:55.746Z,0.00
2023-03-03T01:40:55.764Z,0.00
2023-03-03T01:41:55.718Z,0.00
2023-03-03T01:42:55.712Z,0.00
2023-03-03T01:43:55.724Z,0.00
2023-03-03T01:44:55.688Z,0.00
2023-03-03T01:45:55.700Z,0.00
2023-03-03T01:46:55.725Z,0.00
2023-03-03T01:47:55.656Z,0.00
2023-03-03T01:48:55.668Z,0.00
2023-03-03T01:49:55.656Z,0.00
2023-03-03T01:50:55.640Z,0.00
2023-03-03T01:51:55.630Z,0.00
2023-03-03T01:52:55.624Z,0.00
2023-03-03T01:53:55.617Z,0.00
2023-03-03T01:54:55.597Z,0.00
2023-03-03T01:55:55.587Z,0.00
2023-03-03T01:56:55.569Z,0.00
2023-03-03T01:57:55.563Z,0.00
2023-03-03T01:58:55.575Z,0.00
2023-03-03T01:59:55.538Z,0.00
2023-03-03T02:00:55.529Z,0.00
2023-03-03T02:01:55.618Z,0.00
2023-03-03T02:02:55.599Z,0.00
2023-03-03T02:03:55.531Z,0.00
2023-03-03T02:04:55.502Z,0.00
2023-03-03T02:05:55.488Z,0.00
2023-03-03T02:06:55.474Z,0.00
2023-03-03T02:07:55.458Z,0.00
2023-03-03T02:08:55.466Z,0.00
2023-03-03T02:09:56.459Z,0.00
2023-03-03T02:10:55.440Z,0.00
2023-03-03T02:11:55.431Z,0.00
2023-03-03T02:12:55.419Z,0.00
2023-03-03T02:13:55.408Z,0.00
2023-03-03T02:14:55.420Z,0.00
2023-03-03T02:15:55.447Z,0.00
2023-03-03T02:16:55.386Z,0.00
2023-03-03T02:17:55.369Z,0.00
2023-03-03T02:18:55.369Z,0.00
2023-03-03T02:19:55.347Z,0.00
2023-03-03T02:20:55.364Z,0.00
2023-03-03T02:21:55.338Z,0.00
2023-03-03T02:22:55.323Z,0.00
2023-03-03T02:23:55.320Z,0.00
2023-03-03T02:24:55.325Z,0.00
2023-03-03T02:25:56.879Z,0.00
2023-03-03T02:26:55.285Z,0.00
2023-03-03T02:27:55.281Z,0.00
2023-03-03T02:28:55.272Z,0.00
2023-03-03T02:29:55.277Z,0.00
2023-03-03T02:30:55.248Z,0.00
2023-03-03T02:31:55.420Z,0.00
2023-03-03T02:32:55.245Z,0.00
2023-03-03T02:33:55.231Z,0.00
2023-03-03T02:34:55.210Z,0.00
2023-03-03T02:35:55.297Z,0.00
2023-03-03T02:36:55.204Z,0.00
2023-03-03T02:37:55.197Z,0.00
2023-03-03T02:38:55.217Z,0.00
2023-03-03T02:39:55.177Z,0.00
2023-03-03T02:40:55.156Z,0.00
2023-03-03T02:41:55.165Z,0.00
2023-03-03T02:42:55.138Z,0.00
2023-03-03T02:43:55.150Z,0.00
2023-03-03T02:44:55.124Z,0.00
2023-03-03T02:45:55.119Z,0.00
2023-03-03T02:46:55.125Z,0.00
2023-03-03T02:47:55.085Z,0.00
2023-03-03T02:48:55.087Z,0.00
2023-03-03T02:49:55.107Z,0.00
2023-03-03T02:50:55.063Z,0.00
2023-03-03T02:51:55.062Z,0.00
2023-03-03T02:52:55.037Z,0.00
2023-03-03T02:53:55.039Z,0.00
2023-03-03T02:54:55.038Z,0.00
2023-03-03T02:55:55.107Z,0.00
2023-03-03T02:56:55.005Z,0.00
2023-03-03T02:57:55.011Z,0.00
2023-03-03T02:58:54.997Z,0.00
2023-03-03T02:59:54.982Z,0.00
2023-03-03T03:00:54.990Z,0.00
2023-03-03T03:01:54.947Z,0.00
2023-03-03T03:02:54.936Z,0.00
2023-03-03T03:03:54.986Z,0.00
2023-03-03T03:04:54.937Z,0.00
2023-03-03T03:05:54.904Z,0.00
2023-03-03T03:06:54.893Z,0.00
2023-03-03T03:07:54.907Z,0.00
2023-03-03T03:08:54.882Z,0.00
2023-03-03T03:09:54.908Z,0.00
2023-03-03T03:10:54.867Z,0.00
2023-03-03T03:11:54.855Z,0.00
2023-03-03T03:12:54.845Z,0.00
2023-03-03T03:13:54.837Z,0.00
2023-03-03T03:14:54.872Z,0.00
2023-03-03T03:15:54.806Z,0.00
2023-03-03T03:16:54.907Z,0.00
2023-03-03T03:17:54.802Z,0.00
2023-03-03T03:18:54.789Z,0.00
2023-03-03T03:19:54.778Z,0.00
2023-03-03T03:20:54.770Z,0.00
2023-03-03T03:21:54.784Z,0.00
2023-03-03T03:22:54.743Z,0.00
2023-03-03T03:23:54.729Z,0.00
2023-03-03T03:24:54.721Z,0.00
2023-03-03T03:25:54.709Z,0.00
2023-03-03T03:26:54.720Z,0.00
2023-03-03T03:27:54.707Z,0.00
2023-03-03T03:28:54.710Z,0.00
2023-03-03T03:29:54.659Z,0.00
2023-03-03T03:30:54.671Z,0.00
2023-03-03T03:31:54.698Z,0.00
2023-03-03T03:32:54.658Z,0.00
2023-03-03T03:33:54.633Z,0.00
2023-03-03T03:34:54.625Z,0.00
2023-03-03T03:35:54.645Z,0.00
2023-03-03T03:36:54.604Z,0.00
2023-03-03T03:37:54.605Z,0.00
2023-03-03T03:38:54.600Z,0.00
2023-03-03T03:39:54.594Z,0.00
2023-03-03T03:40:54.595Z,0.00
2023-03-03T03:41:54.559Z,0.00
2023-03-03T03:42:54.546Z,0.00
2023-03-03T03:43:54.547Z,0.00
2023-03-03T03:44:54.526Z,0.00
2023-03-03T03:45:54.565Z,0.00
2023-03-03T03:46:54.506Z,0.00
2023-03-03T03:47:54.504Z,0.00
2023-03-03T03:48:54.497Z,0.00
2023-03-03T03:49:55.498Z,0.00
2023-03-03T03:50:54.464Z,0.00
2023-03-03T03:51:54.463Z,0.00
2023-03-03T03:52:54.478Z,0.00
2023-03-03T03:53:54.449Z,0.00
2023-03-03T03:54:54.429Z,0.00
2023-03-03T03:55:54.410Z,0.00
2023-03-03T03:56:54.429Z,0.00
2023-03-03T03:57:54.422Z,0.00
2023-03-03T03:58:54.394Z,0.00
2023-03-03T03:59:54.401Z,0.00
2023-03-03T04:00:54.372Z,0.00
2023-03-03T04:01:54.357Z,0.00
2023-03-03T04:02:54.530Z,0.00
2023-03-03T04:03:54.361Z,0.00
2023-03-03T04:04:54.339Z,0.00
2023-03-03T04:05:54.343Z,0.00
2023-03-03T04:06:54.333Z,0.00
2023-03-03T04:07:54.313Z,0.00
2023-03-03T04:08:54.297Z,0.00
2023-03-03T04:09:54.318Z,0.00
2023-03-03T04:10:54.294Z,0.00
2023-03-03T04:11:54.272Z,0.00
2023-03-03T04:12:54.290Z,0.00
2023-03-03T04:13:54.250Z,0.00
2023-03-03T04:14:54.268Z,0.00
2023-03-03T04:15:54.314Z,0.00
2023-03-03T04:16:54.230Z,0.00
2023-03-03T04:17:54.240Z,0.00
2023-03-03T04:18:54.223Z,0.00
2023-03-03T04:19:54.191Z,0.00
2023-03-03T04:20:54.213Z,0.00
2023-03-03T04:21:54.175Z,0.00
2023-03-03T04:22:54.173Z,0.00
2023-03-03T04:23:54.156Z,0.00
2023-03-03T04:24:54.163Z,0.00
2023-03-03T04:25:54.134Z,0.00
2023-03-03T04:26:54.140Z,0.00
2023-03-03T04:27:54.119Z,0.00
2023-03-03T04:28:54.115Z,0.00
2023-03-03T04:29:54.121Z,0.00
2023-03-03T04:30:54.124Z,0.00
2023-03-03T04:31:54.107Z,0.00
2023-03-03T04:32:54.073Z,0.00
2023-03-03T04:33:54.054Z,0.00
2023-03-03T04:35:05.734Z,0.00
2023-03-03T04:35:56.088Z,0.00
2023-03-03T04:36:54.052Z,0.00
2023-03-03T04:37:54.018Z,0.00
2023-03-03T04:38:54.019Z,0.00
2023-03-03T04:39:54.004Z,0.00
2023-03-03T04:40:53.997Z,0.00
2023-03-03T04:41:54.006Z,0.00
2023-03-03T04:42:53.998Z,0.00
2023-03-03T04:43:53.951Z,0.00
2023-03-03T04:44:53.955Z,0.00
2023-03-03T04:45:54.021Z,0.00
2023-03-03T04:46:53.945Z,0.00
2023-03-03T04:47:53.935Z,0.00
2023-03-03T04:48:53.930Z,0.00
2023-03-03T04:49:53.908Z,0.00
2023-03-03T04:50:53.894Z,0.00
2023-03-03T04:51:53.893Z,0.00
2023-03-03T04:52:53.898Z,0.00
2023-03-03T04:53:53.890Z,0.00
2023-03-03T04:54:53.865Z,0.00
2023-03-03T04:55:53.862Z,0.00
2023-03-03T04:56:53.845Z,0.00
2023-03-03T04:57:53.854Z,0.00
2023-03-03T04:58:53.820Z,0.00
2023-03-03T04:59:53.808Z,0.00
2023-03-03T05:00:53.816Z,0.00
2023-03-03T05:01:53.936Z,0.00
2023-03-03T05:02:53.773Z,0.00
2023-03-03T05:03:53.784Z,0.00
2023-03-03T05:04:53.794Z,0.00
2023-03-03T05:05:53.742Z,0.00
2023-03-03T05:06:53.755Z,0.00
2023-03-03T05:07:53.732Z,0.00
2023-03-03T05:08:53.723Z,0.00
2023-03-03T05:09:53.705Z,0.00
2023-03-03T05:10:53.694Z,0.00
2023-03-03T05:11:53.723Z,0.00
2023-03-03T05:12:53.673Z,0.00
2023-03-03T05:13:53.660Z,0.00
2023-03-03T05:14:53.668Z,0.00
2023-03-03T05:15:53.685Z,0.00
2023-03-03T05:16:53.659Z,0.00
2023-03-03T05:17:53.628Z,0.00
2023-03-03T05:18:53.609Z,0.00
2023-03-03T05:19:54.615Z,0.00
2023-03-03T05:20:53.589Z,0.00
2023-03-03T05:21:53.608Z,0.00
2023-03-03T05:22:53.576Z,0.00
2023-03-03T05:23:53.574Z,0.00
2023-03-03T05:24:53.552Z,0.00
2023-03-03T05:25:53.552Z,0.00
2023-03-03T05:26:53.531Z,0.00
2023-03-03T05:27:53.546Z,0.00
2023-03-03T05:28:53.503Z,0.00
2023-03-03T05:29:54.524Z,0.00
2023-03-03T05:30:53.509Z,0.00
2023-03-03T05:31:54.495Z,0.00
2023-03-03T05:32:53.488Z,0.00
2023-03-03T05:33:53.467Z,0.00
2023-03-03T05:34:53.495Z,0.00
2023-03-03T05:35:53.463Z,0.00
2023-03-03T05:36:53.438Z,4.00
2023-03-03T05:37:53.455Z,0.00
2023-03-03T05:38:53.430Z,0.00
2023-03-03T05:39:53.412Z,4.00
2023-03-03T05:40:53.392Z,0.00
2023-03-03T05:41:53.393Z,4.00
2023-03-03T05:42:53.468Z,4.00
2023-03-03T05:43:53.376Z,4.00
2023-03-03T05:44:53.355Z,4.00
2023-03-03T05:45:53.363Z,8.00
2023-03-03T05:46:53.397Z,8.00
2023-03-03T05:47:53.350Z,12.00
2023-03-03T05:48:53.348Z,12.00
2023-03-03T05:49:53.310Z,12.00
2023-03-03T05:50:53.299Z,16.00
2023-03-03T05:51:53.296Z,20.00
2023-03-03T05:52:53.296Z,20.00
2023-03-03T05:53:56.002Z,20.00
2023-03-03T05:54:53.264Z,24.00
2023-03-03T05:55:53.254Z,24.00
2023-03-03T05:56:53.257Z,32.00
2023-03-03T05:57:53.234Z,32.00
2023-03-03T05:58:53.248Z,40.00
2023-03-03T05:59:53.224Z,44.00
2023-03-03T06:00:53.203Z,52.00
2023-03-03T06:01:53.282Z,60.00
2023-03-03T06:02:53.238Z,60.00
2023-03-03T06:03:53.196Z,68.00
2023-03-03T06:04:53.166Z,76.00
2023-03-03T06:05:53.166Z,84.00
2023-03-03T06:06:53.147Z,92.00
2023-03-03T06:07:53.211Z,100.00
2023-03-03T06:08:54.509Z,108.00
2023-03-03T06:09:53.124Z,124.00
2023-03-03T06:10:53.115Z,128.00
2023-03-03T06:11:53.105Z,144.00
2023-03-03T06:12:53.106Z,148.00
2023-03-03T06:13:53.087Z,156.00
2023-03-03T06:14:53.079Z,168.00
2023-03-03T06:15:53.083Z,200.00
2023-03-03T06:16:53.042Z,212.00
2023-03-03T06:17:53.039Z,212.00
2023-03-03T06:18:53.029Z,228.00
2023-03-03T06:19:53.024Z,244.00
2023-03-03T06:20:53.025Z,268.00
2023-03-03T06:21:53.006Z,276.00
2023-03-03T06:22:52.987Z,280.00
2023-03-03T06:23:53.010Z,280.00
2023-03-03T06:24:53.016Z,300.00
2023-03-03T06:25:52.965Z,320.00
2023-03-03T06:26:52.947Z,320.00
2023-03-03T06:27:52.946Z,340.00
2023-03-03T06:28:52.922Z,360.00
2023-03-03T06:29:52.933Z,376.00
2023-03-03T06:30:52.902Z,364.00
2023-03-03T06:31:54.042Z,352.00
2023-03-03T06:32:52.894Z,376.00
2023-03-03T06:33:52.902Z,404.00
2023-03-03T06:34:52.875Z,412.00
2023-03-03T06:35:52.952Z,440.00
2023-03-03T06:36:52.863Z,448.00
2023-03-03T06:37:52.832Z,468.00
2023-03-03T06:38:52.865Z,484.00
2023-03-03T06:39:52.853Z,508.00
2023-03-03T06:40:52.875Z,524.00
2023-03-03T06:41:52.883Z,496.00
2023-03-03T06:42:52.785Z,516.00
2023-03-03T06:43:52.783Z,528.00
2023-03-03T06:44:52.808Z,556.00
2023-03-03T06:45:52.806Z,584.00
2023-03-03T06:46:52.747Z,620.00
2023-03-03T06:47:52.745Z,648.00
2023-03-03T06:48:52.731Z,676.00
2023-03-03T06:49:52.738Z,708.00
2023-03-03T06:50:52.723Z,752.00
2023-03-03T06:51:52.700Z,784.00
2023-03-03T06:52:52.706Z,804.00
2023-03-03T06:53:52.682Z,876.00
2023-03-03T06:54:52.665Z,900.00
2023-03-03T06:55:52.665Z,884.00
2023-03-03T06:56:52.681Z,920.00
2023-03-03T06:57:52.682Z,984.00
2023-03-03T06:58:52.636Z,1012.00
2023-03-03T06:59:52.619Z,1012.00
2023-03-03T07:00:52.646Z,1064.00
2023-03-03T07:01:52.604Z,1084.00
2023-03-03T07:02:52.612Z,1064.00
2023-03-03T07:03:52.607Z,1100.00
2023-03-03T07:04:52.571Z,1148.00
2023-03-03T07:05:52.571Z,1200.00
2023-03-03T07:06:52.587Z,1224.00
2023-03-03T07:07:52.562Z,1228.00
2023-03-03T07:08:52.551Z,1232.00
2023-03-03T07:09:52.551Z,1280.00
2023-03-03T07:10:52.541Z,1316.00
2023-03-03T07:11:52.568Z,1296.00
2023-03-03T07:12:52.498Z,1348.00
2023-03-03T07:13:52.489Z,1392.00
2023-03-03T07:14:52.519Z,1440.00
2023-03-03T07:15:52.489Z,1412.00
2023-03-03T07:17:24.386Z,1460.00
2023-03-03T07:17:52.478Z,1540.00
2023-03-03T07:18:52.451Z,1540.00
2023-03-03T07:19:52.464Z,1544.00
2023-03-03T07:20:52.457Z,1596.00
2023-03-03T07:21:52.430Z,1632.00
2023-03-03T07:22:52.442Z,1612.00
2023-03-03T07:23:52.429Z,1616.00
2023-03-03T07:24:53.119Z,1656.00
2023-03-03T07:25:52.410Z,1688.00
2023-03-03T07:26:52.374Z,1736.00
2023-03-03T07:27:52.360Z,1704.00
2023-03-03T07:28:52.372Z,1636.00
2023-03-03T07:29:52.346Z,1684.00
2023-03-03T07:30:52.411Z,1796.00
2023-03-03T07:31:52.342Z,1872.00
2023-03-03T07:32:52.315Z,1912.00
2023-03-03T07:33:52.313Z,1860.00
2023-03-03T07:34:52.300Z,1900.00
2023-03-03T07:35:52.347Z,1936.00
2023-03-03T07:36:52.278Z,2072.00
2023-03-03T07:37:52.278Z,2060.00
2023-03-03T07:38:52.261Z,2040.00
2023-03-03T07:39:52.260Z,1972.00
2023-03-03T07:40:52.280Z,1968.00
2023-03-03T07:41:52.260Z,1988.00
2023-03-03T07:42:52.250Z,2008.00
2023-03-03T07:43:52.247Z,2012.00
2023-03-03T07:44:52.259Z,2048.00
2023-03-03T07:45:52.249Z,2128.00
2023-03-03T07:46:52.188Z,2212.00
2023-03-03T07:47:52.204Z,2316.00
2023-03-03T07:48:52.177Z,2324.00
2023-03-03T07:49:52.181Z,2320.00
2023-03-03T07:50:52.144Z,2348.00
2023-03-03T07:51:52.137Z,2348.00
2023-03-03T07:52:52.154Z,2396.00
2023-03-03T07:53:52.144Z,2460.00
2023-03-03T07:54:52.107Z,2488.00
2023-03-03T07:55:52.097Z,2428.00
2023-03-03T07:56:52.133Z,2476.00
2023-03-03T07:57:52.094Z,2476.00
2023-03-03T07:58:52.124Z,2404.00
2023-03-03T07:59:52.073Z,2272.00
2023-03-03T08:00:52.104Z,2224.00
2023-03-03T08:01:52.035Z,2224.00
2023-03-03T08:02:52.077Z,2252.00
2023-03-03T08:03:52.035Z,2272.00
2023-03-03T08:04:52.104Z,2256.00
2023-03-03T08:05:52.037Z,2252.00
2023-03-03T08:06:52.007Z,2272.00
2023-03-03T08:07:52.000Z,2356.00
2023-03-03T08:08:51.991Z,2432.00
2023-03-03T08:09:52.041Z,2540.00
2023-03-03T08:10:51.987Z,2612.00
2023-03-03T08:11:51.946Z,2612.00
2023-03-03T08:12:52.010Z,2596.00
2023-03-03T08:13:51.924Z,2628.00
2023-03-03T08:14:51.947Z,2572.00
2023-03-03T08:15:51.912Z,2560.00
2023-03-03T08:16:51.898Z,2644.00
2023-03-03T08:17:51.883Z,2708.00
2023-03-03T08:18:51.871Z,2760.00
2023-03-03T08:19:51.869Z,2804.00
2023-03-03T08:20:51.868Z,2944.00
2023-03-03T08:21:51.851Z,2996.00
2023-03-03T08:22:51.836Z,2940.00
2023-03-03T08:23:51.834Z,2832.00
2023-03-03T08:24:51.805Z,2820.00
2023-03-03T08:25:51.825Z,2800.00
2023-03-03T08:26:51.789Z,2780.00
2023-03-03T08:27:51.800Z,2868.00
2023-03-03T08:28:51.800Z,2960.00
2023-03-03T08:29:51.776Z,2928.00
2023-03-03T08:30:54.412Z,2892.00
2023-03-03T08:31:52.817Z,2980.00
2023-03-03T08:32:51.781Z,3048.00
2023-03-03T08:33:51.728Z,3112.00
2023-03-03T08:34:51.704Z,3140.00
2023-03-03T08:35:51.713Z,3220.00
2023-03-03T08:36:51.689Z,3308.00
2023-03-03T08:37:51.683Z,3368.00
2023-03-03T08:38:51.682Z,3420.00
2023-03-03T08:39:51.666Z,3444.00
2023-03-03T08:40:51.643Z,3392.00
2023-03-03T08:41:51.643Z,3332.00
2023-03-03T08:42:51.624Z,3312.00
2023-03-03T08:43:51.665Z,3396.00
2023-03-03T08:44:51.607Z,3536.00
2023-03-03T08:45:51.605Z,3564.00
2023-03-03T08:46:51.710Z,3660.00
2023-03-03T08:47:51.601Z,3760.00
2023-03-03T08:48:51.575Z,3812.00
2023-03-03T08:49:51.569Z,3824.00
2023-03-03T08:50:51.559Z,3940.00
2023-03-03T08:51:51.564Z,3960.00
2023-03-03T08:52:51.551Z,3952.00
2023-03-03T08:53:51.576Z,3908.00
2023-03-03T08:54:51.541Z,3772.00
2023-03-03T08:55:51.547Z,3680.00
2023-03-03T08:56:51.525Z,3660.00
2023-03-03T08:57:51.504Z,3680.00
2023-03-03T08:59:02.273Z,3648.00
2023-03-03T08:59:53.471Z,3776.00
2023-03-03T09:00:52.174Z,4000.00
2023-03-03T09:01:51.467Z,3904.00
2023-03-03T09:02:51.466Z,3760.00
2023-03-03T09:03:51.430Z,3684.00
2023-03-03T09:04:51.502Z,3820.00
2023-03-03T09:05:51.409Z,3956.00
2023-03-03T09:06:51.412Z,3904.00
2023-03-03T09:07:51.389Z,3960.00
2023-03-03T09:08:51.397Z,3988.00
2023-03-03T09:09:51.391Z,3964.00
2023-03-03T09:10:51.373Z,4024.00
2023-03-03T09:11:51.349Z,4156.00
2023-03-03T09:12:51.352Z,4256.00
2023-03-03T09:13:51.354Z,4436.00
2023-03-03T09:14:51.342Z,4652.00
2023-03-03T09:15:51.331Z,4540.00
2023-03-03T09:16:51.329Z,4468.00
2023-03-03T09:17:51.295Z,4516.00
2023-03-03T09:18:51.320Z,4488.00
2023-03-03T09:19:51.287Z,4540.00
2023-03-03T09:20:51.288Z,4448.00
2023-03-03T09:21:51.260Z,4264.00
2023-03-03T09:22:51.245Z,4296.00
2023-03-03T09:23:52.277Z,4484.00
2023-03-03T09:24:51.226Z,4600.00
2023-03-03T09:25:51.212Z,4728.00
2023-03-03T09:26:51.230Z,4716.00
2023-03-03T09:27:51.223Z,4632.00
2023-03-03T09:28:51.191Z,4596.00
2023-03-03T09:29:51.176Z,4648.00
2023-03-03T09:30:51.176Z,4768.00
2023-03-03T09:31:51.270Z,5048.00
2023-03-03T09:32:51.149Z,5368.00
2023-03-03T09:33:51.140Z,5448.00
2023-03-03T09:34:51.132Z,5460.00
2023-03-03T09:35:51.166Z,5464.00
2023-03-03T09:36:51.113Z,5536.00
2023-03-03T09:37:51.128Z,5540.00
2023-03-03T09:38:51.101Z,5524.00
2023-03-03T09:39:51.121Z,5564.00
2023-03-03T09:40:51.072Z,5520.00
2023-03-03T09:41:51.098Z,5480.00
2023-03-03T09:42:51.076Z,5484.00
2023-03-03T09:43:51.045Z,5512.00
2023-03-03T09:44:51.044Z,5464.00
2023-03-03T09:45:51.042Z,5328.00
2023-03-03T09:46:51.068Z,5248.00
2023-03-03T09:47:51.022Z,5280.00
2023-03-03T09:48:50.995Z,5272.00
2023-03-03T09:49:51.337Z,5308.00
2023-03-03T09:50:51.054Z,5376.00
2023-03-03T09:51:51.013Z,5524.00
2023-03-03T09:52:50.949Z,5584.00
2023-03-03T09:53:50.965Z,5576.00
2023-03-03T09:54:50.941Z,5688.00
2023-03-03T09:55:50.939Z,5884.00
2023-03-03T09:56:50.910Z,5864.00
2023-03-03T09:58:04.478Z,5816.00
2023-03-03T09:58:51.894Z,5932.00
2023-03-03T09:59:50.902Z,6116.00
2023-03-03T10:00:50.893Z,6444.00
2023-03-03T10:01:50.856Z,6696.00
2023-03-03T10:02:53.180Z,6668.00
2023-03-03T10:03:52.256Z,6640.00
2023-03-03T10:04:50.849Z,6692.00
2023-03-03T10:05:50.854Z,6516.00
2023-03-03T10:06:50.820Z,6500.00
2023-03-03T10:07:50.797Z,6616.00
2023-03-03T10:08:50.841Z,6784.00
2023-03-03T10:09:50.793Z,6804.00
2023-03-03T10:10:51.330Z,6760.00
2023-03-03T10:11:50.775Z,6512.00
2023-03-03T10:12:50.761Z,6440.00
2023-03-03T10:13:50.748Z,6508.00
2023-03-03T10:14:50.737Z,6600.00
2023-03-03T10:15:50.753Z,6652.00
2023-03-03T10:16:50.848Z,6716.00
2023-03-03T10:17:50.901Z,6832.00
2023-03-03T10:18:51.055Z,6976.00
2023-03-03T10:19:51.320Z,7052.00
2023-03-03T10:20:52.804Z,7144.00
2023-03-03T10:21:52.199Z,7412.00
2023-03-03T10:22:50.679Z,7728.00
2023-03-03T10:23:50.664Z,7844.00
2023-03-03T10:24:50.638Z,7772.00
2023-03-03T10:25:50.657Z,7732.00
2023-03-03T10:27:05.302Z,7692.00
2023-03-03T10:27:52.609Z,7856.00
2023-03-03T10:28:50.624Z,8036.00
2023-03-03T10:29:50.593Z,7960.00
2023-03-03T10:31:04.117Z,7900.00
2023-03-03T10:31:52.687Z,8076.00
2023-03-03T10:32:50.759Z,8280.00
2023-03-03T10:33:50.645Z,8324.00
2023-03-03T10:34:50.547Z,8244.00
2023-03-03T10:36:05.963Z,8272.00
2023-03-03T10:36:52.566Z,8264.00
2023-03-03T10:37:50.513Z,8168.00
2023-03-03T10:38:50.533Z,8136.00
2023-03-03T10:39:50.491Z,8280.00
2023-03-03T10:40:50.523Z,8300.00
2023-03-03T10:41:50.509Z,8188.00
2023-03-03T10:42:50.469Z,8204.00
2023-03-03T10:43:50.462Z,8308.00
2023-03-03T10:44:50.450Z,8604.00
2023-03-03T10:45:50.462Z,8864.00
2023-03-03T10:46:50.463Z,9024.00
2023-03-03T10:47:50.430Z,9000.00
2023-03-03T10:48:50.411Z,8968.00
2023-03-03T10:49:50.409Z,9068.00
2023-03-03T10:50:50.388Z,9256.00
2023-03-03T10:51:50.379Z,9384.00
2023-03-03T10:52:50.464Z,9548.00
2023-03-03T10:53:50.387Z,9644.00
2023-03-03T10:54:50.382Z,9720.00
2023-03-03T10:55:50.386Z,9972.00
2023-03-03T10:56:53.419Z,10444.00
2023-03-03T10:57:51.354Z,10576.00
2023-03-03T10:58:50.361Z,10300.00
2023-03-03T10:59:50.322Z,10064.00
2023-03-03T11:00:50.313Z,9956.00
2023-03-03T11:01:50.299Z,9908.00
2023-03-03T11:02:50.308Z,9904.00
2023-03-03T11:03:50.267Z,10392.00
2023-03-03T11:04:50.279Z,10756.00
2023-03-03T11:05:50.277Z,10792.00
2023-03-03T11:06:50.255Z,10688.00
2023-03-03T11:07:50.254Z,10736.00
2023-03-03T11:08:50.224Z,10928.00
2023-03-03T11:09:50.206Z,11056.00
2023-03-03T11:10:50.217Z,11036.00
2023-03-03T11:11:50.201Z,11052.00
2023-03-03T11:12:50.187Z,11124.00
2023-03-03T11:13:50.170Z,11364.00
2023-03-03T11:14:50.156Z,11752.00
2023-03-03T11:15:50.160Z,11700.00
2023-03-03T11:16:50.213Z,11800.00
2023-03-03T11:17:50.128Z,11808.00
2023-03-03T11:18:50.123Z,11612.00
2023-03-03T11:19:50.141Z,11148.00
2023-03-03T11:20:50.103Z,10968.00
2023-03-03T11:21:50.098Z,10500.00
2023-03-03T11:22:50.072Z,10004.00
2023-03-03T11:23:50.083Z,9976.00
2023-03-03T11:24:50.081Z,10124.00
2023-03-03T11:25:50.066Z,10292.00
2023-03-03T11:26:50.072Z,10444.00
2023-03-03T11:27:50.045Z,10744.00
2023-03-03T11:28:50.043Z,11164.00
2023-03-03T11:29:50.047Z,11212.00
2023-03-03T11:30:50.083Z,11116.00
2023-03-03T11:31:50.079Z,10856.00
2023-03-03T11:32:50.028Z,10784.00
2023-03-03T11:33:49.977Z,11212.00
2023-03-03T11:34:49.987Z,12548.00
2023-03-03T11:35:49.990Z,10712.00
2023-03-03T11:36:49.951Z,10204.00
2023-03-03T11:37:49.950Z,10220.00
2023-03-03T11:38:49.936Z,11224.00
2023-03-03T11:39:49.918Z,12920.00
2023-03-03T11:40:49.922Z,12480.00
2023-03-03T11:41:49.909Z,12004.00
2023-03-03T11:42:49.868Z,10164.00
2023-03-03T11:43:50.898Z,11916.00
2023-03-03T11:44:49.868Z,11864.00
2023-03-03T11:45:49.955Z,10876.00
2023-03-03T11:46:49.853Z,10500.00
2023-03-03T11:47:49.828Z,11044.00
2023-03-03T11:48:49.877Z,11668.00
2023-03-03T11:49:49.839Z,11416.00
2023-03-03T11:50:49.809Z,11056.00
2023-03-03T11:51:49.797Z,11396.00
2023-03-03T11:52:49.787Z,10044.00
2023-03-03T11:53:49.814Z,11044.00
2023-03-03T11:54:49.764Z,11100.00
2023-03-03T11:55:49.748Z,10824.00
2023-03-03T11:56:49.753Z,10688.00
2023-03-03T11:57:49.768Z,10492.00
2023-03-03T11:58:49.725Z,10284.00
2023-03-03T11:59:49.712Z,10252.00
2023-03-03T12:00:50.698Z,10284.00
2023-03-03T12:01:49.686Z,10192.00
2023-03-03T12:02:49.792Z,10328.00
2023-03-03T12:03:49.666Z,10404.00
2023-03-03T12:04:49.657Z,10384.00
2023-03-03T12:05:49.780Z,10480.00
2023-03-03T12:06:49.648Z,10584.00
2023-03-03T12:07:49.637Z,10528.00
2023-03-03T12:08:49.626Z,10460.00
2023-03-03T12:09:49.614Z,10472.00
2023-03-03T12:10:49.631Z,10420.00
2023-03-03T12:11:50.340Z,10416.00
2023-03-03T12:12:49.598Z,8948.00
2023-03-03T12:13:49.578Z,9560.00
2023-03-03T12:14:49.594Z,10336.00
2023-03-03T12:15:49.608Z,10244.00
2023-03-03T12:16:49.544Z,10092.00
2023-03-03T12:17:50.724Z,10256.00
2023-03-03T12:18:49.530Z,10400.00
2023-03-03T12:19:49.537Z,10396.00
2023-03-03T12:20:49.514Z,10388.00
2023-03-03T12:21:49.506Z,10544.00
2023-03-03T12:23:04.536Z,10560.00
2023-03-03T12:23:51.487Z,10548.00
2023-03-03T12:24:49.477Z,10496.00
2023-03-03T12:25:49.486Z,10284.00
2023-03-03T12:26:49.455Z,10220.00
2023-03-03T12:27:49.450Z,10224.00
2023-03-03T12:28:49.462Z,10260.00
2023-03-03T12:29:49.433Z,10156.00
2023-03-03T12:30:49.406Z,10156.00
2023-03-03T12:31:49.406Z,10016.00
2023-03-03T12:32:49.394Z,9988.00
2023-03-03T12:33:49.426Z,9892.00
2023-03-03T12:34:49.369Z,9720.00
2023-03-03T12:35:50.767Z,9632.00
2023-03-03T12:36:50.364Z,9504.00
2023-03-03T12:37:49.332Z,9296.00
2023-03-03T12:38:49.347Z,9304.00